createdAt,value
2022-08-22T00:01:33.990Z,0.90
2022-08-22T00:02:54.358Z,0.90
2022-08-22T00:03:03.230Z,0.75
2022-08-22T00:05:57.351Z,1.20
2022-08-22T00:10:25.582Z,0.65
2022-08-22T00:14:58.402Z,1.10
2022-08-22T00:19:04.600Z,0.85
2022-08-22T00:23:25.088Z,0.82
2022-08-22T00:27:34.085Z,1.05
2022-08-22T00:31:40.385Z,0.70
2022-08-22T00:35:47.830Z,1.13
2022-08-22T00:39:55.104Z,1.05
2022-08-22T00:44:17.127Z,1.00
2022-08-22T00:48:35.300Z,1.30
2022-08-22T00:53:11.403Z,1.03
2022-08-22T00:57:27.720Z,0.75
2022-08-22T01:01:36.363Z,1.05
2022-08-22T01:05:37.830Z,1.00
2022-08-22T01:10:18.948Z,1.30
2022-08-22T01:14:37.833Z,1.10
2022-08-22T01:19:13.088Z,0.90
2022-08-22T01:23:45.652Z,0.73
2022-08-22T01:28:05.704Z,1.20
2022-08-22T01:32:48.790Z,0.82
2022-08-22T01:37:25.637Z,1.15
2022-08-22T01:41:41.204Z,0.80
2022-08-22T01:46:20.668Z,0.90
2022-08-22T01:50:43.643Z,0.90
2022-08-22T01:54:58.135Z,0.95
2022-08-22T01:59:11.241Z,0.82
2022-08-22T02:03:47.732Z,1.10
2022-08-22T02:08:03.214Z,1.40
2022-08-22T02:12:26.086Z,1.40
2022-08-22T02:16:40.740Z,1.42
2022-08-22T02:20:47.964Z,0.90
2022-08-22T02:25:08.871Z,1.33
2022-08-22T02:29:16.351Z,0.98
2022-08-22T02:33:38.364Z,1.25
2022-08-22T02:38:07.923Z,1.10
2022-08-22T02:42:12.312Z,1.00
2022-08-22T02:46:43.875Z,1.35
2022-08-22T02:51:25.518Z,1.15
2022-08-22T02:55:38.139Z,1.15
2022-08-22T03:00:01.969Z,1.30
2022-08-22T03:04:22.493Z,1.20
2022-08-22T03:08:29.217Z,1.38
2022-08-22T03:12:56.973Z,1.20
2022-08-22T03:17:10.751Z,1.33
2022-08-22T03:21:36.776Z,1.10
2022-08-22T03:26:09.024Z,1.23
2022-08-22T03:30:20.160Z,1.42
2022-08-22T03:34:25.005Z,0.80
2022-08-22T03:38:45.680Z,1.27
2022-08-22T03:42:53.117Z,0.73
2022-08-22T03:47:28.568Z,1.50
2022-08-22T03:52:01.967Z,1.50
2022-08-22T03:56:09.058Z,1.02
2022-08-22T04:00:22.660Z,1.48
2022-08-22T04:04:57.893Z,1.20
2022-08-22T04:09:18.163Z,1.17
2022-08-22T04:13:49.063Z,1.30
2022-08-22T04:18:12.270Z,1.20
2022-08-22T04:22:33.440Z,0.95
2022-08-22T04:26:46.105Z,1.10
2022-08-22T04:30:59.924Z,1.50
2022-08-22T04:35:06.927Z,1.25
2022-08-22T04:39:18.521Z,1.30
2022-08-22T04:43:33.979Z,1.25
2022-08-22T04:48:03.607Z,1.48
2022-08-22T04:52:18.323Z,1.52
2022-08-22T04:56:57.560Z,1.55
2022-08-22T05:01:25.557Z,1.38
2022-08-22T05:05:35.347Z,1.15
2022-08-22T05:09:41.202Z,1.50
2022-08-22T05:13:47.124Z,1.63
2022-08-22T05:17:50.731Z,1.20
2022-08-22T05:21:52.872Z,1.80
2022-08-22T05:25:59.671Z,1.98
2022-08-22T05:30:09.273Z,1.77
2022-08-22T05:34:16.626Z,1.50
2022-08-22T05:38:23.040Z,1.48
2022-08-22T05:42:31.340Z,1.65
2022-08-22T05:46:46.752Z,1.70
2022-08-22T05:50:54.691Z,1.50
2022-08-22T05:55:03.090Z,1.02
2022-08-22T05:59:25.314Z,1.20
2022-08-22T06:03:53.550Z,1.35
2022-08-22T06:08:03.909Z,1.45
2022-08-22T06:12:22.089Z,1.38
2022-08-22T06:16:51.733Z,1.10
2022-08-22T06:21:00.792Z,1.17
2022-08-22T06:25:12.332Z,1.17
2022-08-22T06:29:27.318Z,0.80
2022-08-22T06:33:33.098Z,0.75
2022-08-22T06:37:41.059Z,1.02
2022-08-22T06:41:54.328Z,0.73
2022-08-22T06:45:56.068Z,0.82
2022-08-22T06:50:37.319Z,1.17
2022-08-22T06:54:44.479Z,0.88
2022-08-22T06:58:48.668Z,0.95
2022-08-22T07:02:58.695Z,0.90
2022-08-22T07:07:01.597Z,0.82
2022-08-22T07:11:08.954Z,0.85
2022-08-22T07:15:39.832Z,0.80
2022-08-22T07:19:56.068Z,1.02
2022-08-22T07:24:01.193Z,0.90
2022-08-22T07:28:16.167Z,0.75
2022-08-22T07:32:25.219Z,0.70
2022-08-22T07:36:48.052Z,0.80
2022-08-22T07:40:56.802Z,1.00
2022-08-22T07:45:10.539Z,0.60
2022-08-22T07:49:21.802Z,0.90
2022-08-22T07:53:33.946Z,0.73
2022-08-22T07:57:41.376Z,0.50
2022-08-22T08:01:50.213Z,0.50
2022-08-22T08:05:52.369Z,0.93
2022-08-22T08:09:59.982Z,0.60
2022-08-22T08:14:05.499Z,1.00
2022-08-22T08:18:21.824Z,0.73
2022-08-22T08:22:25.732Z,0.80
2022-08-22T08:27:10.541Z,0.73
2022-08-22T08:31:20.343Z,0.75
2022-08-22T08:35:28.211Z,1.00
2022-08-22T08:39:35.768Z,0.80
2022-08-22T08:43:46.174Z,0.82
2022-08-22T08:48:06.136Z,0.90
2022-08-22T08:52:24.491Z,0.80
2022-08-22T08:56:37.754Z,0.75
2022-08-22T09:00:42.800Z,0.75
2022-08-22T09:05:11.994Z,0.60
2022-08-22T09:10:08.607Z,0.70
2022-08-22T09:14:40.108Z,1.13
2022-08-22T09:19:02.972Z,1.05
2022-08-22T09:23:38.052Z,0.73
2022-08-22T09:27:55.738Z,0.68
2022-08-22T09:32:13.140Z,0.85
2022-08-22T09:36:22.358Z,0.60
2022-08-22T09:40:34.892Z,0.82
2022-08-22T09:44:55.551Z,1.02
2022-08-22T09:49:05.475Z,0.95
2022-08-22T09:53:34.765Z,0.85
2022-08-22T09:57:50.431Z,1.08
2022-08-22T10:02:19.184Z,0.63
2022-08-22T10:06:26.759Z,0.88
2022-08-22T10:11:00.130Z,0.80
2022-08-22T10:15:33.601Z,1.02
2022-08-22T10:20:25.529Z,0.90
2022-08-22T10:24:43.750Z,0.82
2022-08-22T10:28:45.703Z,0.70
2022-08-22T10:33:00.068Z,0.60
2022-08-22T10:37:10.419Z,0.82
2022-08-22T10:41:19.772Z,0.70
2022-08-22T10:45:36.596Z,0.55
2022-08-22T10:49:51.294Z,0.70
2022-08-22T10:54:14.640Z,0.50
2022-08-22T10:58:27.824Z,0.70
2022-08-22T11:02:37.587Z,0.50
2022-08-22T11:06:54.155Z,0.90
2022-08-22T11:11:03.063Z,0.73
2022-08-22T11:15:28.408Z,0.83
2022-08-22T11:20:01.360Z,1.23
2022-08-22T11:24:53.907Z,0.60
2022-08-22T11:29:21.682Z,1.15
2022-08-22T11:33:47.473Z,0.70
2022-08-22T11:37:58.254Z,0.57
2022-08-22T11:42:06.233Z,0.73
2022-08-22T11:46:29.691Z,0.60
2022-08-22T11:50:37.872Z,0.80
2022-08-22T11:55:16.855Z,0.88
2022-08-22T11:59:29.676Z,0.90
2022-08-22T12:03:58.475Z,0.65
2022-08-22T12:08:11.313Z,1.00
2022-08-22T12:12:23.447Z,0.93
2022-08-22T12:16:45.175Z,0.80
2022-08-22T12:21:13.474Z,0.82
2022-08-22T12:25:56.423Z,0.52
2022-08-22T12:30:14.133Z,0.85
2022-08-22T12:34:26.833Z,1.02
2022-08-22T12:38:50.436Z,0.52
2022-08-22T12:43:21.741Z,0.50
2022-08-22T12:47:45.732Z,0.60
2022-08-22T12:51:55.757Z,0.52
2022-08-22T12:56:13.813Z,0.47
2022-08-22T13:00:36.735Z,0.65
2022-08-22T13:04:44.988Z,0.90
2022-08-22T13:08:46.881Z,1.03
2022-08-22T13:12:53.936Z,0.70
2022-08-22T13:16:58.889Z,0.65
2022-08-22T13:21:04.065Z,0.70
2022-08-22T13:25:14.569Z,0.50
2022-08-22T13:29:57.130Z,0.80
2022-08-22T13:34:01.600Z,1.02
2022-08-22T13:38:12.956Z,0.70
2022-08-22T13:42:27.589Z,0.77
2022-08-22T13:46:35.524Z,0.70
2022-08-22T13:51:04.954Z,0.98
2022-08-22T13:55:27.633Z,1.00
2022-08-22T13:59:59.450Z,0.77
2022-08-22T14:04:31.997Z,0.95
2022-08-22T14:08:45.793Z,0.90
2022-08-22T14:12:56.591Z,1.02
2022-08-22T14:16:59.365Z,1.23
2022-08-22T14:21:25.244Z,0.88
2022-08-22T14:25:35.198Z,0.65
2022-08-22T14:29:56.796Z,0.52
2022-08-22T14:34:13.471Z,0.70
2022-08-22T14:38:29.789Z,0.93
2022-08-22T14:42:47.791Z,0.60
2022-08-22T14:47:30.337Z,0.70
2022-08-22T14:51:28.256Z,0.80
2022-08-22T14:55:30.644Z,0.68
2022-08-22T14:59:52.281Z,0.60
2022-08-22T15:04:01.044Z,0.60
2022-08-22T15:08:05.427Z,0.70
2022-08-22T15:12:21.416Z,0.77
2022-08-22T15:16:56.779Z,0.65
2022-08-22T15:21:25.341Z,0.60
2022-08-22T15:25:40.978Z,0.70
2022-08-22T15:29:56.124Z,0.90
2022-08-22T15:34:11.331Z,0.80
2022-08-22T15:38:32.585Z,0.80
2022-08-22T15:42:47.179Z,0.85
2022-08-22T15:46:51.352Z,0.75
2022-08-22T15:51:25.302Z,0.73
2022-08-22T15:55:28.105Z,0.80
2022-08-22T15:59:54.232Z,1.00
2022-08-22T16:04:02.448Z,0.80
2022-08-22T16:08:09.282Z,1.00
2022-08-22T16:12:28.328Z,0.88
2022-08-22T16:16:41.695Z,1.15
2022-08-22T16:20:51.771Z,0.85
2022-08-22T16:24:59.663Z,0.68
2022-08-22T16:29:14.695Z,0.50
2022-08-22T16:33:39.948Z,0.85
2022-08-22T16:37:47.473Z,0.98
2022-08-22T16:41:50.730Z,0.90
2022-08-22T16:45:53.078Z,0.73
2022-08-22T16:50:00.420Z,0.80
2022-08-22T16:54:08.681Z,0.90
2022-08-22T16:58:56.645Z,0.67
2022-08-22T17:03:18.190Z,0.60
2022-08-22T17:07:54.020Z,0.93
2022-08-22T17:12:24.089Z,1.40
2022-08-22T17:16:34.607Z,0.88
2022-08-22T17:21:13.620Z,0.60
2022-08-22T17:25:46.188Z,0.93
2022-08-22T17:30:02.931Z,1.00
2022-08-22T17:34:25.461Z,0.80
2022-08-22T17:38:46.380Z,1.02
2022-08-22T17:43:16.105Z,0.80
2022-08-22T17:47:23.419Z,0.63
2022-08-22T17:51:43.199Z,0.60
2022-08-22T17:56:17.877Z,0.80
2022-08-22T18:00:31.362Z,0.80
2022-08-22T18:05:16.612Z,0.85
2022-08-22T18:09:29.122Z,0.90
2022-08-22T18:13:42.088Z,0.70
2022-08-22T18:18:09.423Z,0.80
2022-08-22T18:22:19.804Z,0.47
2022-08-22T18:26:36.691Z,0.70
2022-08-22T18:31:02.312Z,1.00
2022-08-22T18:35:14.233Z,0.60
2022-08-22T18:39:27.340Z,0.70
2022-08-22T18:43:44.992Z,0.80
2022-08-22T18:47:55.466Z,0.50
2022-08-22T18:52:13.636Z,0.50
2022-08-22T18:56:34.127Z,0.43
2022-08-22T19:00:50.796Z,0.52
2022-08-22T19:05:19.471Z,0.80
2022-08-22T19:09:44.089Z,0.70
2022-08-22T19:14:25.569Z,0.68
2022-08-22T19:18:36.284Z,1.15
2022-08-22T19:22:38.110Z,0.60
2022-08-22T19:26:47.787Z,0.80
2022-08-22T19:30:53.078Z,0.82
2022-08-22T19:35:23.562Z,0.90
2022-08-22T19:39:40.049Z,0.73
2022-08-22T19:43:44.176Z,1.02
2022-08-22T19:47:55.595Z,0.90
2022-08-22T19:52:22.919Z,0.95
2022-08-22T19:56:54.891Z,0.95
2022-08-22T20:01:02.223Z,1.15
2022-08-22T20:05:22.132Z,0.68
2022-08-22T20:10:08.904Z,0.90
2022-08-22T20:14:30.494Z,0.73
2022-08-22T20:19:05.089Z,0.82
2022-08-22T20:23:33.939Z,0.57
2022-08-22T20:27:42.337Z,0.98
2022-08-22T20:31:48.618Z,0.50
2022-08-22T20:35:56.080Z,0.60
2022-08-22T20:40:21.053Z,0.63
2022-08-22T20:44:40.447Z,0.52
2022-08-22T20:52:54.381Z,0.40
2022-08-22T20:57:02.883Z,0.77
2022-08-22T21:01:07.292Z,0.50
2022-08-22T21:05:22.340Z,0.73
2022-08-22T21:09:42.621Z,1.00
2022-08-22T21:13:44.127Z,0.75
2022-08-22T21:17:45.576Z,0.70
2022-08-22T21:21:47.223Z,0.88
2022-08-22T21:25:53.787Z,0.70
2022-08-22T21:34:02.152Z,0.80
2022-08-22T21:38:04.025Z,0.45
2022-08-22T21:42:05.592Z,0.75
2022-08-22T21:46:07.856Z,0.85
2022-08-22T21:50:21.169Z,0.73
2022-08-22T21:54:25.498Z,0.57
2022-08-22T21:58:35.035Z,0.80
2022-08-22T22:02:40.950Z,0.60
2022-08-22T22:06:43.208Z,0.88
2022-08-22T22:10:46.631Z,0.70
2022-08-22T22:14:49.427Z,0.75
2022-08-22T22:18:50.916Z,0.60
2022-08-22T22:22:52.366Z,0.65
2022-08-22T22:26:53.873Z,0.65
2022-08-22T22:30:55.359Z,0.55
2022-08-22T22:34:56.922Z,0.57
2022-08-22T22:38:58.720Z,0.77
2022-08-22T22:43:00.205Z,0.85
2022-08-22T22:47:02.931Z,0.90
2022-08-22T22:51:08.971Z,0.95
2022-08-22T22:55:10.529Z,0.55
2022-08-22T22:59:13.515Z,0.55
2022-08-22T23:03:16.256Z,0.77
2022-08-22T23:07:18.508Z,0.47
2022-08-22T23:11:27.248Z,0.80
2022-08-22T23:15:28.708Z,0.52
2022-08-22T23:19:30.954Z,0.60
2022-08-22T23:23:32.401Z,0.68
2022-08-22T23:27:33.881Z,0.50
2022-08-22T23:31:41.346Z,0.73
2022-08-22T23:35:42.793Z,0.90
2022-08-22T23:39:44.792Z,0.70
2022-08-22T23:43:49.117Z,0.70
2022-08-22T23:47:50.554Z,0.88
2022-08-22T23:51:52.424Z,0.60
2022-08-22T23:55:53.906Z,0.70
2022-08-22T23:59:58.007Z,0.77
